Time;durP1;ratioP1;P1;durP2;ratioP2;P2;SDS_P1;SDS_P2;PMS_P1;PMS_P2;Temp;Humidity;BMP_temperature;BMP_pressure;BME280_temperature;BME280_humidity;BME280_pressure;Samples;Min_cycle;Max_cycle;Signal;HPM_P1;HPM_P2
2023/12/03 00:03:14;;;;;;;51.75;18.05;;;;;;;-2.42;100.00;100318.84;4900917;59;1143071;-76
2023/12/03 00:08:20;;;;;;;53.20;17.63;;;;;;;-2.45;100.00;100315.91;4921728;58;1143394;-73
2023/12/03 00:13:26;;;;;;;53.20;16.43;;;;;;;-2.46;100.00;100324.56;4893041;58;1143031;-76
2023/12/03 00:18:31;;;;;;;49.00;19.43;;;;;;;-2.42;100.00;100322.72;4891904;59;1143343;-76
2023/12/03 00:23:37;;;;;;;44.23;14.70;;;;;;;-2.39;100.00;100322.64;4911422;59;1143097;-74
2023/12/03 00:28:42;;;;;;;49.03;16.93;;;;;;;-2.38;100.00;100321.75;4892226;59;1142808;-76
2023/12/03 00:33:48;;;;;;;51.55;20.32;;;;;;;-2.33;100.00;100323.78;4891194;59;1143065;-74
2023/12/03 00:38:53;;;;;;;51.97;18.80;;;;;;;-2.31;100.00;100329.77;4930639;59;1143288;-73
2023/12/03 00:43:59;;;;;;;49.03;16.67;;;;;;;-2.32;100.00;100327.63;4877178;59;1143483;-76
2023/12/03 00:49:05;;;;;;;51.15;16.48;;;;;;;-2.29;100.00;100339.16;4816906;58;1143445;-74
2023/12/03 00:54:10;;;;;;;53.60;19.40;;;;;;;-2.27;100.00;100345.16;4835435;58;1142899;-74
2023/12/03 00:59:16;;;;;;;48.87;17.25;;;;;;;-2.23;100.00;100347.22;4893365;59;1143021;-75
2023/12/03 01:04:21;;;;;;;55.95;19.85;;;;;;;-2.20;100.00;100351.88;4892429;59;1143209;-72
2023/12/03 01:09:30;;;;;;;44.70;16.40;;;;;;;-2.18;100.00;100360.91;4912325;59;1143192;-73
2023/12/03 01:14:34;;;;;;;43.83;16.95;;;;;;;-2.15;100.00;100362.13;4892939;59;1143008;-75
2023/12/03 01:19:40;;;;;;;40.93;16.53;;;;;;;-2.14;100.00;100372.41;4893345;58;1142773;-74
2023/12/03 01:24:45;;;;;;;41.83;17.37;;;;;;;-2.12;100.00;100366.74;4967400;57;1142857;-73
2023/12/03 01:29:51;;;;;;;37.63;14.20;;;;;;;-2.07;100.00;100373.55;4915973;58;1142833;-76
2023/12/03 01:34:57;;;;;;;39.20;15.70;;;;;;;-2.02;100.00;100377.72;4892984;59;1142943;-74
2023/12/03 01:40:03;;;;;;;34.30;13.00;;;;;;;-2.02;100.00;100389.37;4771947;59;1142952;-76
2023/12/03 01:45:10;;;;;;;41.70;16.70;;;;;;;-1.99;100.00;100389.74;4801923;58;1142773;-75
2023/12/03 01:50:16;;;;;;;36.80;15.17;;;;;;;-2.01;100.00;100394.11;4781563;59;1143332;-75
2023/12/03 01:55:22;;;;;;;36.03;14.30;;;;;;;-1.98;100.00;100394.85;4713333;60;1143091;-73
2023/12/03 02:00:28;;;;;;;35.77;12.90;;;;;;;-1.97;100.00;100395.70;4843408;58;1142866;-75
2023/12/03 02:05:33;;;;;;;35.13;13.53;;;;;;;-2.00;100.00;100395.37;4827550;57;1142981;-73
2023/12/03 02:10:39;;;;;;;40.90;14.77;;;;;;;-2.02;100.00;100391.97;4780678;58;1142985;-73
2023/12/03 02:15:44;;;;;;;40.12;15.95;;;;;;;-2.03;100.00;100404.97;4809202;58;1143052;-75
2023/12/03 02:20:50;;;;;;;44.07;16.40;;;;;;;-2.05;100.00;100405.00;4823084;57;1143090;-75
2023/12/03 02:25:57;;;;;;;46.10;16.20;;;;;;;-2.04;100.00;100407.15;4823408;58;1142953;-75
2023/12/03 02:31:02;;;;;;;34.50;15.57;;;;;;;-1.99;100.00;100422.13;4782170;59;1142970;-76
2023/12/03 02:36:09;;;;;;;47.97;15.90;;;;;;;-2.02;100.00;100425.66;4785105;58;1143066;-76
2023/12/03 02:41:14;;;;;;;56.53;18.10;;;;;;;-2.03;100.00;100438.65;4793999;59;1143003;-73
2023/12/03 02:46:20;;;;;;;60.97;18.67;;;;;;;-2.07;100.00;100439.17;4787509;59;1142998;-75
2023/12/03 02:51:25;;;;;;;51.23;17.80;;;;;;;-2.07;100.00;100447.39;4770586;58;1142856;-74
2023/12/03 02:56:31;;;;;;;52.70;17.43;;;;;;;-2.08;100.00;100449.58;4801572;57;1142944;-74
2023/12/03 03:01:36;;;;;;;55.57;18.40;;;;;;;-2.09;100.00;100447.43;4788262;58;1143007;-74
2023/12/03 03:06:42;;;;;;;46.50;16.67;;;;;;;-2.06;100.00;100451.68;4840418;58;1142939;-74
2023/12/03 03:11:48;;;;;;;45.17;14.50;;;;;;;-2.06;100.00;100459.02;4792308;59;1142817;-76
2023/12/03 03:16:53;;;;;;;49.60;18.27;;;;;;;-2.05;100.00;100468.94;4785268;58;1142609;-73
2023/12/03 03:21:59;;;;;;;44.77;15.50;;;;;;;-2.07;100.00;100470.71;4801828;58;1143274;-73
2023/12/03 03:27:04;;;;;;;46.13;13.70;;;;;;;-2.07;100.00;100474.15;4782906;59;1143211;-76
2023/12/03 03:32:10;;;;;;;48.10;17.20;;;;;;;-2.03;100.00;100482.26;4786178;58;1143233;-74
2023/12/03 03:37:16;;;;;;;38.87;14.37;;;;;;;-2.01;100.00;100498.62;4773857;58;1143258;-74
2023/12/03 03:42:22;;;;;;;49.80;14.30;;;;;;;-2.01;100.00;100498.62;4833890;58;1143005;-74
2023/12/03 03:47:28;;;;;;;42.30;11.57;;;;;;;-1.98;100.00;100503.69;4881855;58;1142900;-75
2023/12/03 03:52:33;;;;;;;41.10;14.83;;;;;;;-1.94;100.00;100510.95;4890323;59;1142849;-76
2023/12/03 03:57:39;;;;;;;39.63;14.27;;;;;;;-1.92;100.00;100512.61;4909655;59;1142974;-75
2023/12/03 04:02:44;;;;;;;32.60;13.03;;;;;;;-1.88;100.00;100522.02;4890444;59;1142801;-76
2023/12/03 04:07:51;;;;;;;35.67;11.40;;;;;;;-1.87;100.00;100525.02;4890443;58;1143066;-73
2023/12/03 04:12:56;;;;;;;33.35;11.85;;;;;;;-1.86;100.00;100525.87;4891468;58;1142815;-75
2023/12/03 04:18:02;;;;;;;25.83;9.97;;;;;;;-1.84;100.00;100529.27;4779651;59;1149582;-75
2023/12/03 04:23:08;;;;;;;23.12;8.80;;;;;;;-1.84;100.00;100535.31;4884626;58;1140734;-75
2023/12/03 04:28:14;;;;;;;21.03;7.83;;;;;;;-1.83;100.00;100540.87;4827769;58;1141226;-76
2023/12/03 04:33:20;;;;;;;19.53;9.17;;;;;;;-1.81;100.00;100551.20;4821365;59;1140967;-73
2023/12/03 04:38:25;;;;;;;22.10;8.30;;;;;;;-1.80;100.00;100552.91;4790125;58;1140858;-75
2023/12/03 04:43:31;;;;;;;24.75;8.10;;;;;;;-1.78;100.00;100562.34;4807893;59;1141007;-73
2023/12/03 04:48:36;;;;;;;19.63;6.47;;;;;;;-1.73;100.00;100567.86;4802474;59;1140743;-75
2023/12/03 04:53:42;;;;;;;14.20;7.60;;;;;;;-1.70;100.00;100576.86;4771985;57;1140892;-75
2023/12/03 04:58:47;;;;;;;12.57;5.60;;;;;;;-1.69;100.00;100578.12;4709749;61;1141027;-73
2023/12/03 05:03:53;;;;;;;7.95;4.65;;;;;;;-1.66;100.00;100588.38;4728055;61;1141582;-74
2023/12/03 05:08:59;;;;;;;11.05;5.67;;;;;;;-1.68;100.00;100584.98;4738964;59;1138902;-76
2023/12/03 05:14:05;;;;;;;8.57;4.60;;;;;;;-1.69;100.00;100593.67;4783660;59;1147923;-75
2023/12/03 05:19:10;;;;;;;6.60;4.25;;;;;;;-1.69;100.00;100605.34;4801598;59;1138861;-75
2023/12/03 05:24:16;;;;;;;8.73;5.45;;;;;;;-1.69;100.00;100612.27;4783810;59;1138611;-73
2023/12/03 05:29:22;;;;;;;13.58;5.97;;;;;;;-1.70;100.00;100614.45;4764219;60;1138789;-75
2023/12/03 05:34:27;;;;;;;9.93;6.00;;;;;;;-1.71;100.00;100626.56;4728695;59;1140886;-76
2023/12/03 05:39:33;;;;;;;12.27;5.90;;;;;;;-1.70;100.00;100628.27;4769353;60;1138864;-73
2023/12/03 05:44:39;;;;;;;8.83;6.30;;;;;;;-1.72;100.00;100632.64;4783025;60;1140916;-75
2023/12/03 05:49:44;;;;;;;11.13;7.03;;;;;;;-1.76;100.00;100640.08;4798299;60;1138696;-74
2023/12/03 05:54:50;;;;;;;8.87;5.73;;;;;;;-1.82;100.00;100646.70;4778516;59;1140772;-73
2023/12/03 05:59:55;;;;;;;12.73;6.87;;;;;;;-1.87;100.00;100658.50;4779530;59;1138816;-75
2023/12/03 06:05:02;;;;;;;12.00;6.97;;;;;;;-1.92;100.00;100659.05;4823323;58;1140995;-74
2023/12/03 06:10:08;;;;;;;14.00;6.55;;;;;;;-1.95;100.00;100668.63;4808070;59;1140802;-75
2023/12/03 06:15:14;;;;;;;6.62;4.80;;;;;;;-2.01;100.00;100674.84;4779100;60;1140970;-75
2023/12/03 06:20:19;;;;;;;14.45;7.62;;;;;;;-2.07;100.00;100668.93;4746999;60;1138852;-76
2023/12/03 06:25:25;;;;;;;21.17;9.47;;;;;;;-2.14;100.00;100691.08;4794037;59;1141105;-74
2023/12/03 06:30:30;;;;;;;13.23;6.13;;;;;;;-2.17;100.00;100689.03;4706188;59;1140732;-75
2023/12/03 06:35:36;;;;;;;9.93;5.60;;;;;;;-2.21;100.00;100699.90;4673215;59;1140872;-74
2023/12/03 06:40:42;;;;;;;6.57;4.33;;;;;;;-2.24;100.00;100710.77;4691440;58;1138944;-74
2023/12/03 06:45:47;;;;;;;13.87;6.70;;;;;;;-2.28;100.00;100720.78;4638824;60;1138717;-75
2023/12/03 06:50:54;;;;;;;9.20;5.43;;;;;;;-2.32;100.00;100729.08;4760895;60;1141090;-76
2023/12/03 06:55:59;;;;;;;14.23;7.27;;;;;;;-2.38;100.00;100734.38;4809505;59;1138693;-75
2023/12/03 07:01:05;;;;;;;15.47;6.97;;;;;;;-2.43;100.00;100737.94;4747096;60;1140702;-73
2023/12/03 07:06:13;;;;;;;17.03;8.77;;;;;;;-2.48;100.00;100749.71;4960702;56;1140937;-73
2023/12/03 07:11:18;;;;;;;18.10;7.17;;;;;;;-2.55;100.00;100754.59;4959295;57;1140739;-73
2023/12/03 07:16:24;;;;;;;12.77;7.20;;;;;;;-2.61;100.00;100762.06;4892042;58;1140711;-75
2023/12/03 07:21:29;;;;;;;9.93;5.93;;;;;;;-2.64;100.00;100763.84;4870750;58;1141098;-70
2023/12/03 07:26:35;;;;;;;8.93;5.63;;;;;;;-2.69;100.00;100775.58;4835408;59;1138917;-70
2023/12/03 07:31:41;;;;;;;12.10;7.37;;;;;;;-2.76;100.00;100783.06;4822675;60;1138706;-69
2023/12/03 07:36:46;;;;;;;18.33;7.53;;;;;;;-2.79;100.00;100787.44;4819585;57;1140782;-71
2023/12/03 07:41:53;;;;;;;11.30;6.33;;;;;;;-2.83;100.00;100789.23;4857483;58;1140749;-70
2023/12/03 07:46:59;;;;;;;12.83;6.87;;;;;;;-2.88;100.00;100798.36;4854827;58;1140775;-69
2023/12/03 07:52:05;;;;;;;11.50;6.53;;;;;;;-2.89;100.00;100802.27;4857612;58;1140805;-69
2023/12/03 07:57:10;;;;;;;11.47;5.40;;;;;;;-2.90;100.00;100808.32;4835120;57;1140727;-68
2023/12/03 08:02:16;;;;;;;6.87;4.90;;;;;;;-2.89;100.00;100813.47;4870010;58;1141001;-70
2023/12/03 08:07:21;;;;;;;7.10;4.90;;;;;;;-2.86;100.00;100812.12;4824431;58;1138663;-69
2023/12/03 08:12:28;;;;;;;10.17;4.83;;;;;;;-2.75;100.00;100822.75;4849532;59;1139088;-70
2023/12/03 08:17:34;;;;;;;8.13;5.27;;;;;;;-2.57;100.00;100828.85;4818153;58;1140876;-70
2023/12/03 08:22:40;;;;;;;9.03;5.40;;;;;;;-2.42;100.00;100830.29;4877131;59;1138991;-69
2023/12/03 08:27:45;;;;;;;7.63;4.50;;;;;;;-2.32;100.00;100835.72;4862582;59;1138773;-70
2023/12/03 08:32:51;;;;;;;10.07;5.00;;;;;;;-2.23;100.00;100839.41;4863358;59;1138615;-69
2023/12/03 08:37:56;;;;;;;8.07;3.73;;;;;;;-2.23;100.00;100845.89;4875874;58;1140976;-68
2023/12/03 08:43:02;;;;;;;11.50;4.03;;;;;;;-2.26;100.00;100836.87;4800308;59;1138840;-70
2023/12/03 08:48:07;;;;;;;16.23;6.47;;;;;;;-2.28;100.00;100852.89;4803603;59;1140832;-70
2023/12/03 08:53:13;;;;;;;12.00;5.13;;;;;;;-2.34;100.00;100858.20;4821469;57;1141033;-70
2023/12/03 08:58:18;;;;;;;14.83;6.72;;;;;;;-2.38;100.00;100866.91;4751199;58;1141094;-69
2023/12/03 09:03:24;;;;;;;12.00;5.03;;;;;;;-2.44;100.00;100869.16;4816466;58;1141018;-69
2023/12/03 09:08:31;;;;;;;14.75;6.85;;;;;;;-2.46;100.00;100873.55;4777094;58;1140856;-70
2023/12/03 09:13:36;;;;;;;13.67;7.43;;;;;;;-2.42;100.00;100881.65;4852759;58;1140815;-69
2023/12/03 09:18:42;;;;;;;9.93;5.67;;;;;;;-2.37;100.00;100885.02;4789313;58;1140767;-69
2023/12/03 09:23:49;;;;;;;10.27;6.43;;;;;;;-2.33;100.00;100891.85;4793747;59;1138684;-70
2023/12/03 09:28:55;;;;;;;13.30;5.60;;;;;;;-2.31;100.00;100895.27;4881962;58;1140853;-69
2023/12/03 09:34:01;;;;;;;13.07;6.77;;;;;;;-2.23;100.00;100890.78;4876889;58;1140735;-71
2023/12/03 09:39:08;;;;;;;16.50;7.10;;;;;;;-2.18;100.00;100892.00;4981080;58;1141044;-70
2023/12/03 09:44:23;;;;;;;15.17;7.90;;;;;;;-2.18;100.00;100886.81;4887662;58;1141115;-68
2023/12/03 09:49:33;;;;;;;10.80;6.27;;;;;;;-2.23;100.00;100881.72;4861612;58;1140851;-75
2023/12/03 09:54:40;;;;;;;16.27;7.47;;;;;;;-2.21;100.00;100890.76;4834599;58;1141322;-73
2023/12/03 09:59:51;;;;;;;14.13;7.20;;;;;;;-2.22;100.00;100895.09;4923571;58;1141299;-74
2023/12/03 10:04:58;;;;;;;16.80;8.23;;;;;;;-2.17;100.00;100889.83;4914103;58;1140993;-72
2023/12/03 10:10:08;;;;;;;16.52;7.60;;;;;;;-2.11;100.00;100885.80;4881699;58;1140801;-77
2023/12/03 10:15:15;;;;;;;16.02;7.83;;;;;;;-2.05;100.00;100896.49;4900664;58;1140780;-78
2023/12/03 10:20:29;;;;;;;20.90;7.47;;;;;;;-2.05;100.00;100889.58;4886150;59;1140746;-78
2023/12/03 10:25:36;;;;;;;17.33;8.33;;;;;;;-2.07;100.00;100901.70;4878735;58;1140743;-78
2023/12/03 10:30:42;;;;;;;25.10;12.17;;;;;;;-2.12;100.00;100903.52;4895287;59;1140885;-77
2023/12/03 10:35:47;;;;;;;60.67;22.17;;;;;;;-2.07;100.00;100900.84;4844572;58;1143017;-77
2023/12/03 10:40:53;;;;;;;19.47;9.50;;;;;;;-2.01;100.00;100900.30;4880998;58;1256516;-77
2023/12/03 10:45:59;;;;;;;21.90;10.67;;;;;;;-1.95;100.00;100897.56;4896918;58;1140886;-77
2023/12/03 10:51:13;;;;;;;12.60;6.37;;;;;;;-1.84;100.00;100896.07;4882130;59;1143094;-77
2023/12/03 10:56:19;;;;;;;15.30;8.03;;;;;;;-1.77;100.00;100906.27;4874223;58;1140758;-76
2023/12/03 11:01:25;;;;;;;16.48;8.65;;;;;;;-1.64;100.00;100908.59;4883143;59;1141181;-78
2023/12/03 11:06:36;;;;;;;11.60;5.70;;;;;;;-1.54;100.00;100919.20;4917382;59;1142053;-77
2023/12/03 11:11:41;;;;;;;14.70;6.37;;;;;;;-1.52;100.00;100919.98;4877450;59;1140976;-76
2023/12/03 11:17:04;;;;;;;10.33;6.60;;;;;;;-1.50;100.00;100924.27;4881057;58;1140793;-77
2023/12/03 11:22:25;;;;;;;18.00;8.07;;;;;;;-1.52;100.00;100925.17;4903606;58;1140964;-78
2023/12/03 11:27:31;;;;;;;8.27;5.27;;;;;;;-1.69;100.00;100924.71;4883875;58;1140944;-78
2023/12/03 11:32:43;;;;;;;7.92;4.45;;;;;;;-1.94;100.00;100936.00;4827192;59;1138811;-78
2023/12/03 11:37:51;;;;;;;16.60;8.63;;;;;;;-2.05;100.00;100940.55;4926329;59;1138891;-78
2023/12/03 11:42:59;;;;;;;10.68;5.67;;;;;;;-2.19;100.00;100944.26;4878929;59;1141139;-77
2023/12/03 11:48:11;;;;;;;16.07;7.80;;;;;;;-2.29;100.00;100945.29;4881296;59;1141030;-78
2023/12/03 11:53:39;;;;;;;30.60;11.25;;;;;;;-2.30;100.00;100940.16;4805614;60;1140836;-76
2023/12/03 11:58:46;;;;;;;21.07;7.43;;;;;;;-2.19;100.00;100944.70;4902348;59;1143081;-79
2023/12/03 12:03:53;;;;;;;22.80;9.17;;;;;;;-2.07;100.00;100940.58;4841693;59;1140695;-78
2023/12/03 12:08:58;;;;;;;14.23;7.53;;;;;;;-1.96;100.00;100948.13;4883498;58;1249305;-78
2023/12/03 12:14:07;;;;;;;11.27;6.20;;;;;;;-1.78;100.00;100947.33;4908647;58;1140855;-77
2023/12/03 12:19:16;;;;;;;14.60;5.03;;;;;;;-1.90;100.00;100950.17;4882229;58;1140695;-78
2023/12/03 12:24:24;;;;;;;8.85;5.58;;;;;;;-2.05;100.00;100959.98;4953088;58;1141041;-78
2023/12/03 12:29:31;;;;;;;15.17;8.17;;;;;;;-2.06;100.00;100955.69;4980644;58;1139111;-78
2023/12/03 12:34:40;;;;;;;18.57;8.93;;;;;;;-2.05;100.00;100959.98;4961929;58;1140844;-81
2023/12/03 12:39:48;;;;;;;16.85;7.25;;;;;;;-2.06;100.00;100963.02;4954475;58;1140988;-77
2023/12/03 12:44:54;;;;;;;17.48;8.08;;;;;;;-2.12;100.00;100972.19;4939737;58;1141240;-76
2023/12/03 12:50:01;;;;;;;14.60;8.23;;;;;;;-2.23;100.00;100970.24;4876681;59;1140856;-75
2023/12/03 12:55:07;;;;;;;23.70;9.67;;;;;;;-2.33;100.00;100974.75;4807795;59;1141141;-75
2023/12/03 13:00:13;;;;;;;20.80;9.70;;;;;;;-2.40;100.00;100969.24;4906847;59;1140949;-77
2023/12/03 13:05:19;;;;;;;18.27;10.00;;;;;;;-2.42;100.00;100981.36;4879155;58;1140942;-78
2023/12/03 13:10:25;;;;;;;21.80;9.97;;;;;;;-2.40;100.00;100983.48;4847617;58;1143039;-77
2023/12/03 13:15:31;;;;;;;13.23;6.73;;;;;;;-2.39;100.00;100997.30;4876413;59;1141298;-77
2023/12/03 13:20:36;;;;;;;21.47;10.30;;;;;;;-2.43;100.00;100999.07;4879287;59;1141002;-77
2023/12/03 13:25:42;;;;;;;15.33;7.37;;;;;;;-2.40;100.00;100985.22;4880744;59;1142902;-78
2023/12/03 13:30:48;;;;;;;16.87;8.53;;;;;;;-2.40;100.00;100987.81;4824003;60;1140906;-78
2023/12/03 13:35:54;;;;;;;13.10;5.90;;;;;;;-2.40;100.00;100977.45;4927094;58;1140789;-77
2023/12/03 13:40:59;;;;;;;14.27;8.63;;;;;;;-2.36;100.00;100974.79;4885916;58;1140780;-78
2023/12/03 13:46:06;;;;;;;17.23;7.17;;;;;;;-2.35;100.00;100978.23;4873751;58;1257452;-75
2023/12/03 13:51:12;;;;;;;19.33;10.00;;;;;;;-2.36;100.00;100972.20;4886153;59;1141158;-77
2023/12/03 13:56:17;;;;;;;19.93;9.50;;;;;;;-2.34;100.00;100974.33;4879175;58;1143423;-77
2023/12/03 14:01:23;;;;;;;13.65;8.13;;;;;;;-2.32;100.00;100973.01;4881593;58;1141299;-77
2023/12/03 14:06:29;;;;;;;20.53;9.33;;;;;;;-2.31;100.00;100966.51;4899911;59;1141134;-75
2023/12/03 14:11:35;;;;;;;17.50;7.90;;;;;;;-2.29;100.00;100972.48;4882430;58;1141008;-75
2023/12/03 14:16:41;;;;;;;11.30;6.33;;;;;;;-2.29;100.00;100963.89;4887245;59;1140900;-78
2023/12/03 14:21:48;;;;;;;15.85;8.75;;;;;;;-2.29;100.00;100963.42;4904249;58;1140982;-78
2023/12/03 14:26:53;;;;;;;16.33;8.40;;;;;;;-2.29;100.00;100970.38;4885757;59;1140921;-79
2023/12/03 14:31:59;;;;;;;13.83;5.77;;;;;;;-2.30;100.00;100979.87;4832509;58;1141109;-78
2023/12/03 14:37:05;;;;;;;26.75;9.43;;;;;;;-2.29;100.00;100991.92;4857741;58;1141171;-78
2023/12/03 14:42:11;;;;;;;14.78;7.80;;;;;;;-2.30;100.00;100992.83;4859360;58;1140816;-77
2023/12/03 14:47:17;;;;;;;22.65;10.90;;;;;;;-2.29;100.00;101002.75;4930158;58;1140849;-76
2023/12/03 14:52:24;;;;;;;20.95;9.68;;;;;;;-2.28;100.00;101008.31;4832449;58;1142916;-77
2023/12/03 14:57:30;;;;;;;19.07;9.00;;;;;;;-2.28;100.00;101009.61;4911703;58;1141071;-76
2023/12/03 15:02:36;;;;;;;21.10;8.30;;;;;;;-2.28;100.00;101021.27;4891922;58;1140904;-77
2023/12/03 15:07:43;;;;;;;17.40;7.90;;;;;;;-2.28;100.00;101023.86;4891976;58;1140991;-74
2023/12/03 15:12:49;;;;;;;18.57;10.20;;;;;;;-2.31;100.00;101022.20;4911740;58;1140793;-78
2023/12/03 15:17:54;;;;;;;20.33;10.60;;;;;;;-2.31;100.00;101024.80;4892562;58;1143025;-76
2023/12/03 15:23:01;;;;;;;18.14;9.02;;;;;;;-2.31;100.00;101033.00;4911599;58;1142926;-78
2023/12/03 15:28:07;;;;;;;14.47;7.77;;;;;;;-2.34;100.00;101026.58;4927952;56;1140979;-77
2023/12/03 15:33:12;;;;;;;18.43;8.73;;;;;;;-2.36;100.00;101036.95;4900406;58;1141060;-75
2023/12/03 15:38:18;;;;;;;13.30;7.08;;;;;;;-2.32;100.00;101048.13;4808638;57;1140952;-76
2023/12/03 15:43:24;;;;;;;21.40;9.93;;;;;;;-2.35;100.00;101050.33;4891857;58;1141055;-75
2023/12/03 15:48:29;;;;;;;9.90;5.73;;;;;;;-2.32;100.00;101058.05;4884995;57;1140681;-75
2023/12/03 15:53:35;;;;;;;20.93;9.77;;;;;;;-2.36;100.00;101046.46;4844533;57;1138957;-79
2023/12/03 15:58:40;;;;;;;17.37;8.73;;;;;;;-2.31;100.00;101052.44;4888921;58;1140506;-75
2023/12/03 16:03:46;;;;;;;28.30;11.63;;;;;;;-2.31;100.00;101048.11;4899470;58;1140931;-75
2023/12/03 16:08:51;;;;;;;22.60;10.43;;;;;;;-2.28;100.00;101060.13;4892239;58;1143011;-78
2023/12/03 16:13:57;;;;;;;15.10;8.47;;;;;;;-2.27;100.00;101060.55;4892573;58;1143165;-77
2023/12/03 16:19:03;;;;;;;17.60;9.33;;;;;;;-2.27;100.00;101060.55;4965725;58;1140736;-77
2023/12/03 16:24:11;;;;;;;15.30;7.23;;;;;;;-2.28;100.00;101067.46;4962845;58;1140523;-76
2023/12/03 16:29:16;;;;;;;22.22;9.73;;;;;;;-2.27;100.00;101071.77;4953636;58;1140880;-75
2023/12/03 16:34:29;;;;;;;21.82;11.90;;;;;;;-2.26;100.00;101083.84;4953579;58;1141074;-76
2023/12/03 16:39:36;;;;;;;18.60;9.50;;;;;;;-2.22;100.00;101097.16;4925609;58;1142977;-75
2023/12/03 16:44:42;;;;;;;22.17;12.07;;;;;;;-2.20;100.00;101094.12;4881007;57;1141475;-77
2023/12/03 16:49:49;;;;;;;22.10;10.53;;;;;;;-2.17;100.00;101103.14;4920317;57;1143107;-77
2023/12/03 16:54:55;;;;;;;15.73;8.17;;;;;;;-2.14;100.00;101109.55;4913128;58;1143405;-77
2023/12/03 17:00:00;;;;;;;11.75;5.92;;;;;;;-2.11;100.00;101112.53;4894299;59;1140906;-77
2023/12/03 17:05:06;;;;;;;19.07;11.00;;;;;;;-2.09;100.00;101115.10;4887550;59;1141027;-77
2023/12/03 17:10:13;;;;;;;12.57;7.37;;;;;;;-2.09;100.00;101125.03;4884896;58;1143034;-76
2023/12/03 17:15:18;;;;;;;15.30;6.87;;;;;;;-2.07;100.00;101127.59;4960413;58;1140883;-77
2023/12/03 17:20:24;;;;;;;21.23;9.97;;;;;;;-2.04;100.00;101133.59;4931908;58;1141144;-76
2023/12/03 17:25:32;;;;;;;15.23;8.73;;;;;;;-2.01;100.00;101133.55;4914376;58;1140832;-76
2023/12/03 17:30:38;;;;;;;11.43;6.90;;;;;;;-1.97;100.00;101135.63;4895249;58;1140661;-76
2023/12/03 17:35:44;;;;;;;17.50;9.17;;;;;;;-1.96;100.00;101134.75;4894996;58;1140708;-76
2023/12/03 17:40:50;;;;;;;14.00;6.27;;;;;;;-1.94;100.00;101144.22;4913827;58;1140992;-76
2023/12/03 17:45:56;;;;;;;16.43;8.67;;;;;;;-1.95;100.00;101145.53;4895008;58;1140827;-76
2023/12/03 17:51:02;;;;;;;16.03;9.50;;;;;;;-1.96;100.00;101149.86;4894278;58;1140995;-76
2023/12/03 17:56:10;;;;;;;16.62;9.05;;;;;;;-1.96;100.00;101149.86;4913708;58;1140771;-77
2023/12/03 18:01:15;;;;;;;20.93;10.53;;;;;;;-1.96;100.00;101155.05;4788794;58;1140903;-76
2023/12/03 18:06:21;;;;;;;14.47;7.33;;;;;;;-1.98;100.00;101161.98;4819055;58;1142972;-76
2023/12/03 18:11:26;;;;;;;23.47;10.23;;;;;;;-1.99;100.00;101162.89;4830949;59;1141028;-76
2023/12/03 18:16:32;;;;;;;17.40;9.33;;;;;;;-1.98;100.00;101168.91;4906333;57;1143150;-76
2023/12/03 18:21:40;;;;;;;20.93;10.27;;;;;;;-2.00;100.00;101165.06;4898673;56;1140922;-76
2023/12/03 18:26:48;;;;;;;19.80;9.83;;;;;;;-2.00;100.00;101167.66;4714345;60;1143239;-76
2023/12/03 18:31:53;;;;;;;14.33;8.40;;;;;;;-2.01;100.00;101170.27;4775603;59;1140877;-77
2023/12/03 18:37:00;;;;;;;15.53;7.63;;;;;;;-2.00;100.00;101178.03;4807595;58;1141139;-77
2023/12/03 18:42:07;;;;;;;13.10;7.53;;;;;;;-2.00;100.00;101179.77;4871941;58;1140947;-77
2023/12/03 18:47:12;;;;;;;20.02;8.25;;;;;;;-2.00;100.00;101186.24;4924327;57;1140758;-77
2023/12/03 18:52:19;;;;;;;21.52;9.45;;;;;;;-2.01;100.00;101184.09;4803387;59;1141044;-77
2023/12/03 18:57:27;;;;;;;12.88;7.42;;;;;;;-2.00;100.00;101193.58;4703168;59;1140902;-76
2023/12/03 19:02:33;;;;;;;16.47;10.47;;;;;;;-2.03;100.00;101193.63;4773353;60;1141060;-77
2023/12/03 19:07:41;;;;;;;19.73;10.57;;;;;;;-2.02;100.00;101194.04;4831333;58;1142896;-76
2023/12/03 19:12:47;;;;;;;24.43;12.50;;;;;;;-2.01;100.00;101203.97;4887775;58;1143019;-76
2023/12/03 19:17:58;;;;;;;17.80;10.20;;;;;;;-2.04;100.00;101206.59;4987035;57;1140839;-76
2023/12/03 19:30:14;;;;;;;19.73;10.27;;;;;;;-2.12;100.00;101208.85;4810699;58;1142960;-76
2023/12/03 19:36:00;;;;;;;11.60;6.10;;;;;;;-2.14;100.00;101209.78;4801135;58;1142639;-76
2023/12/03 19:41:45;;;;;;;17.60;9.47;;;;;;;-2.20;100.00;101209.85;4777994;61;1140559;-76
2023/12/03 19:47:32;;;;;;;17.77;8.33;;;;;;;-2.22;100.00;101214.20;4483898;65;1140736;-76
2023/12/03 19:53:00;;;;;;;16.33;9.60;;;;;;;-2.27;100.00;101214.69;4402104;65;1140921;-74
2023/12/03 19:58:30;;;;;;;16.15;7.58;;;;;;;-2.33;100.00;101223.42;4376159;66;1141181;-74
2023/12/03 20:03:35;;;;;;;15.73;8.20;;;;;;;-2.36;100.00;101218.71;4407055;63;1140961;-74
2023/12/03 20:08:41;;;;;;;12.73;6.83;;;;;;;-2.38;100.00;101225.20;4393693;65;1141038;-74
2023/12/03 20:13:48;;;;;;;14.50;7.80;;;;;;;-2.41;100.00;101222.65;4425634;63;1141167;-76
2023/12/03 20:18:53;;;;;;;14.60;8.38;;;;;;;-2.43;100.00;101230.02;4414544;63;1140975;-75
2023/12/03 20:24:00;;;;;;;15.75;7.25;;;;;;;-2.42;100.00;101226.55;4494408;62;1141450;-75
2023/12/03 20:29:05;;;;;;;16.00;8.35;;;;;;;-2.45;100.00;101231.80;4550500;60;1141207;-75
2023/12/03 20:34:11;;;;;;;14.95;7.92;;;;;;;-2.50;100.00;101234.00;4752001;58;1141072;-76
2023/12/03 20:39:17;;;;;;;16.62;9.00;;;;;;;-2.50;100.00;101240.47;4720957;59;1141205;-76
2023/12/03 20:44:23;;;;;;;9.68;5.95;;;;;;;-2.52;100.00;101243.95;4730461;60;1140884;-75
2023/12/03 20:49:28;;;;;;;17.63;9.50;;;;;;;-2.55;100.00;101247.44;4712384;59;1138977;-75
2023/12/03 20:54:34;;;;;;;16.33;8.73;;;;;;;-2.57;100.00;101244.44;4710655;60;1140929;-75
2023/12/03 20:59:39;;;;;;;11.67;6.90;;;;;;;-2.63;100.00;101236.33;4728971;60;1141074;-75
2023/12/03 21:04:46;;;;;;;11.13;6.63;;;;;;;-2.63;100.00;101235.03;4710748;60;1140919;-75
2023/12/03 21:09:51;;;;;;;15.50;8.20;;;;;;;-2.61;100.00;101224.66;4711585;60;1140792;-76
2023/12/03 21:14:57;;;;;;;13.60;7.40;;;;;;;-2.65;100.00;101229.45;4801370;60;1141031;-76
2023/12/03 21:20:02;;;;;;;12.93;7.50;;;;;;;-2.69;100.00;101231.21;4746338;60;1141048;-75
2023/12/03 21:25:08;;;;;;;14.73;8.93;;;;;;;-2.70;100.00;101235.97;4715541;60;1140781;-76
2023/12/03 21:30:14;;;;;;;17.20;8.87;;;;;;;-2.68;100.00;101241.98;4751452;59;1141037;-75
2023/12/03 21:35:20;;;;;;;19.23;10.03;;;;;;;-2.69;100.00;101237.69;4718016;59;1140980;-76
2023/12/03 21:40:25;;;;;;;17.57;9.80;;;;;;;-2.70;100.00;101246.33;4711750;58;1143177;-76
2023/12/03 21:45:31;;;;;;;24.27;12.50;;;;;;;-2.71;100.00;101254.97;4731252;59;1140721;-76
2023/12/03 21:50:37;;;;;;;23.90;11.20;;;;;;;-2.73;100.00;101256.70;4711190;59;1143066;-75
2023/12/03 21:55:42;;;;;;;21.17;8.67;;;;;;;-2.75;100.00;101254.56;4710645;60;1143025;-76
2023/12/03 22:00:48;;;;;;;19.63;9.60;;;;;;;-2.80;100.00;101249.05;4728673;60;1186109;-76
2023/12/03 22:05:55;;;;;;;20.27;9.95;;;;;;;-2.82;100.00;101240.44;4718489;59;1146499;-75
2023/12/03 22:11:01;;;;;;;20.62;10.88;;;;;;;-2.82;100.00;101245.61;4713556;59;1140765;-75
2023/12/03 22:16:09;;;;;;;24.13;11.33;;;;;;;-2.84;100.00;101243.04;4694890;60;1143050;-76
2023/12/03 22:21:16;;;;;;;17.73;9.97;;;;;;;-2.81;100.00;101240.86;4700064;59;1143091;-75
2023/12/03 22:26:21;;;;;;;18.23;8.23;;;;;;;-2.81;100.00;101244.30;4649431;60;1140916;-76
2023/12/03 22:31:27;;;;;;;21.00;11.25;;;;;;;-2.85;100.00;101255.13;4692436;59;1140918;-75
2023/12/03 22:36:32;;;;;;;23.67;11.00;;;;;;;-2.86;100.00;101243.48;4731515;59;1142941;-75
2023/12/03 22:41:38;;;;;;;22.33;12.10;;;;;;;-2.85;100.00;101247.36;4675149;59;1142997;-76
2023/12/03 22:46:44;;;;;;;23.85;11.90;;;;;;;-2.83;100.00;101242.16;4640532;59;1142937;-76